sensor_id;sensor_type;location;lat;lon;timestamp;pressure;altitude;pressure_sealevel;temperature;humidity
7168;BME280;3625;51.762;14.320;2023-06-19T00:00:29;100500.19;;;16.04;100.00
7168;BME280;3625;51.762;14.320;2023-06-19T00:02:58;100496.63;;;16.04;100.00
7168;BME280;3625;51.762;14.320;2023-06-19T00:05:27;100493.22;;;16.00;100.00
7168;BME280;3625;51.762;14.320;2023-06-19T00:07:55;100498.66;;;15.99;100.00
7168;BME280;3625;51.762;14.320;2023-06-19T00:10:24;100460.53;;;15.75;100.00
7168;BME280;3625;51.762;14.320;2023-06-19T00:12:54;100488.31;;;15.91;100.00
7168;BME280;3625;51.762;14.320;2023-06-19T00:15:23;100491.97;;;15.89;100.00
7168;BME280;3625;51.762;14.320;2023-06-19T00:17:51;100491.16;;;15.87;100.00
7168;BME280;3625;51.762;14.320;2023-06-19T00:20:20;100495.63;;;15.86;100.00
7168;BME280;3625;51.762;14.320;2023-06-19T00:22:49;100492.16;;;15.84;100.00
7168;BME280;3625;51.762;14.320;2023-06-19T00:25:19;100463.81;;;15.61;100.00
7168;BME280;3625;51.762;14.320;2023-06-19T00:27:47;100496.97;;;15.76;100.00
7168;BME280;3625;51.762;14.320;2023-06-19T00:30:17;100506.84;;;15.74;100.00
7168;BME280;3625;51.762;14.320;2023-06-19T00:32:46;100504.31;;;15.71;100.00
7168;BME280;3625;51.762;14.320;2023-06-19T00:35:17;100429.88;;;15.23;100.00
7168;BME280;3625;51.762;14.320;2023-06-19T00:37:47;100496.75;;;15.60;100.00
7168;BME280;3625;51.762;14.320;2023-06-19T00:40:27;100454.41;;;15.31;100.00
7168;BME280;3625;51.762;14.320;2023-06-19T00:42:56;100417.25;;;15.06;100.00
7168;BME280;3625;51.762;14.320;2023-06-19T00:45:29;100494.75;;;15.43;100.00
7168;BME280;3625;51.762;14.320;2023-06-19T00:47:59;100481.53;;;15.40;100.00
7168;BME280;3625;51.762;14.320;2023-06-19T00:50:29;100492.09;;;15.43;100.00
7168;BME280;3625;51.762;14.320;2023-06-19T00:52:58;100493.06;;;15.41;100.00
7168;BME280;3625;51.762;14.320;2023-06-19T00:55:29;100488.81;;;15.37;100.00
7168;BME280;3625;51.762;14.320;2023-06-19T00:58:00;100460.38;;;15.16;100.00
7168;BME280;3625;51.762;14.320;2023-06-19T01:00:30;100489.06;;;15.31;100.00
7168;BME280;3625;51.762;14.320;2023-06-19T01:02:59;100471.84;;;15.18;100.00
7168;BME280;3625;51.762;14.320;2023-06-19T01:05:29;100505.25;;;15.26;100.00
7168;BME280;3625;51.762;14.320;2023-06-19T01:08:03;100479.22;;;15.11;100.00
7168;BME280;3625;51.762;14.320;2023-06-19T01:10:41;100495.72;;;15.21;100.00
7168;BME280;3625;51.762;14.320;2023-06-19T01:13:18;100462.19;;;14.93;100.00
7168;BME280;3625;51.762;14.320;2023-06-19T01:15:52;100494.03;;;15.18;100.00
7168;BME280;3625;51.762;14.320;2023-06-19T01:18:21;100495.63;;;15.22;100.00
7168;BME280;3625;51.762;14.320;2023-06-19T01:20:50;100447.13;;;14.92;100.00
7168;BME280;3625;51.762;14.320;2023-06-19T01:23:20;100495.88;;;15.16;100.00
7168;BME280;3625;51.762;14.320;2023-06-19T01:25:49;100502.41;;;15.09;100.00
7168;BME280;3625;51.762;14.320;2023-06-19T01:28:17;100465.09;;;14.87;100.00
7168;BME280;3625;51.762;14.320;2023-06-19T01:30:47;100493.78;;;15.02;100.00
7168;BME280;3625;51.762;14.320;2023-06-19T01:33:24;100486.88;;;14.97;100.00
7168;BME280;3625;51.762;14.320;2023-06-19T01:35:55;100485.22;;;14.94;100.00
7168;BME280;3625;51.762;14.320;2023-06-19T01:38:30;100476.44;;;14.92;100.00
7168;BME280;3625;51.762;14.320;2023-06-19T01:41:04;100477.41;;;14.90;100.00
7168;BME280;3625;51.762;14.320;2023-06-19T01:43:35;100474.94;;;14.85;100.00
7168;BME280;3625;51.762;14.320;2023-06-19T01:46:04;100471.47;;;14.83;100.00
7168;BME280;3625;51.762;14.320;2023-06-19T01:48:35;100461.16;;;14.74;100.00
7168;BME280;3625;51.762;14.320;2023-06-19T01:51:06;100432.72;;;14.53;100.00
7168;BME280;3625;51.762;14.320;2023-06-19T01:53:40;100470.09;;;14.73;100.00
7168;BME280;3625;51.762;14.320;2023-06-19T01:56:09;100466.75;;;14.68;100.00
7168;BME280;3625;51.762;14.320;2023-06-19T01:58:38;100467.81;;;14.62;100.00
7168;BME280;3625;51.762;14.320;2023-06-19T02:01:06;100463.63;;;14.57;100.00
7168;BME280;3625;51.762;14.320;2023-06-19T02:04:02;100337.97;;;13.79;100.00
7168;BME280;3625;51.762;14.320;2023-06-19T02:07:18;100310.78;;;13.71;100.00
7168;BME280;3625;51.762;14.320;2023-06-19T02:14:54;100443.28;;;14.54;100.00
7168;BME280;3625;51.762;14.320;2023-06-19T02:17:23;100403.56;;;14.26;100.00
7168;BME280;3625;51.762;14.320;2023-06-19T02:19:52;100447.88;;;14.51;100.00
7168;BME280;3625;51.762;14.320;2023-06-19T02:22:21;100439.91;;;14.51;100.00
7168;BME280;3625;51.762;14.320;2023-06-19T02:24:49;100439.66;;;14.57;100.00
7168;BME280;3625;51.762;14.320;2023-06-19T02:27:18;100436.94;;;14.58;100.00
7168;BME280;3625;51.762;14.320;2023-06-19T02:29:46;100444.00;;;14.59;100.00
7168;BME280;3625;51.762;14.320;2023-06-19T02:32:17;100436.88;;;14.60;100.00
7168;BME280;3625;51.762;14.320;2023-06-19T02:34:45;100421.22;;;14.52;100.00
7168;BME280;3625;51.762;14.320;2023-06-19T02:37:14;100431.56;;;14.60;100.00
7168;BME280;3625;51.762;14.320;2023-06-19T02:40:00;100401.16;;;14.44;100.00
7168;BME280;3625;51.762;14.320;2023-06-19T02:42:32;100440.78;;;14.73;100.00
7168;BME280;3625;51.762;14.320;2023-06-19T02:45:01;100436.06;;;14.80;100.00
7168;BME280;3625;51.762;14.320;2023-06-19T02:47:32;100444.63;;;14.88;100.00
7168;BME280;3625;51.762;14.320;2023-06-19T02:50:03;100431.25;;;14.89;100.00
7168;BME280;3625;51.762;14.320;2023-06-19T02:52:32;100404.25;;;14.77;100.00
7168;BME280;3625;51.762;14.320;2023-06-19T02:55:00;100446.44;;;15.09;100.00
7168;BME280;3625;51.762;14.320;2023-06-19T02:57:29;100408.91;;;14.93;100.00
7168;BME280;3625;51.762;14.320;2023-06-19T02:59:57;100449.28;;;15.26;100.00
7168;BME280;3625;51.762;14.320;2023-06-19T03:02:26;100441.72;;;15.37;100.00
7168;BME280;3625;51.762;14.320;2023-06-19T03:04:59;100323.13;;;14.85;100.00
7168;BME280;3625;51.762;14.320;2023-06-19T03:07:27;100432.75;;;15.60;100.00
7168;BME280;3625;51.762;14.320;2023-06-19T03:13:43;100428.00;;;15.87;100.00
7168;BME280;3625;51.762;14.320;2023-06-19T03:16:22;100428.34;;;16.00;100.00
7168;BME280;3625;51.762;14.320;2023-06-19T03:18:51;100424.28;;;16.10;100.00
7168;BME280;3625;51.762;14.320;2023-06-19T03:21:23;100425.47;;;16.23;100.00
7168;BME280;3625;51.762;14.320;2023-06-19T03:23:52;100427.56;;;16.35;100.00
7168;BME280;3625;51.762;14.320;2023-06-19T03:26:24;100438.56;;;16.48;100.00
7168;BME280;3625;51.762;14.320;2023-06-19T03:28:55;100439.81;;;16.59;100.00
7168;BME280;3625;51.762;14.320;2023-06-19T03:31:26;100448.97;;;16.73;100.00
7168;BME280;3625;51.762;14.320;2023-06-19T03:33:55;100458.94;;;16.88;100.00
7168;BME280;3625;51.762;14.320;2023-06-19T03:36:26;100445.28;;;16.94;100.00
7168;BME280;3625;51.762;14.320;2023-06-19T03:38:54;100377.16;;;16.67;100.00
7168;BME280;3625;51.762;14.320;2023-06-19T03:41:27;100448.25;;;17.24;100.00
7168;BME280;3625;51.762;14.320;2023-06-19T03:43:56;100414.19;;;17.10;100.00
7168;BME280;3625;51.762;14.320;2023-06-19T03:46:24;100445.84;;;17.37;100.00
7168;BME280;3625;51.762;14.320;2023-06-19T03:48:53;100448.13;;;17.44;100.00
7168;BME280;3625;51.762;14.320;2023-06-19T03:51:22;100450.25;;;17.55;100.00
7168;BME280;3625;51.762;14.320;2023-06-19T03:53:51;100453.50;;;17.61;100.00
7168;BME280;3625;51.762;14.320;2023-06-19T03:56:20;100453.03;;;17.70;100.00
7168;BME280;3625;51.762;14.320;2023-06-19T03:58:49;100450.03;;;17.77;100.00
7168;BME280;3625;51.762;14.320;2023-06-19T04:01:17;100437.06;;;17.86;100.00
7168;BME280;3625;51.762;14.320;2023-06-19T04:03:48;100459.28;;;18.21;100.00
7168;BME280;3625;51.762;14.320;2023-06-19T04:06:17;100414.47;;;18.25;100.00
7168;BME280;3625;51.762;14.320;2023-06-19T04:08:46;100434.50;;;18.66;100.00
7168;BME280;3625;51.762;14.320;2023-06-19T04:11:16;100456.53;;;19.03;100.00
7168;BME280;3625;51.762;14.320;2023-06-19T04:13:45;100464.22;;;19.25;98.99
7168;BME280;3625;51.762;14.320;2023-06-19T04:16:13;100476.81;;;19.38;97.99
7168;BME280;3625;51.762;14.320;2023-06-19T04:18:42;100446.13;;;19.28;96.88
7168;BME280;3625;51.762;14.320;2023-06-19T04:21:11;100446.56;;;19.36;96.18
7168;BME280;3625;51.762;14.320;2023-06-19T04:23:39;100465.09;;;19.25;92.96
7168;BME280;3625;51.762;14.320;2023-06-19T04:26:08;100478.84;;;19.35;93.94
7168;BME280;3625;51.762;14.320;2023-06-19T04:28:38;100477.69;;;19.39;94.08
7168;BME280;3625;51.762;14.320;2023-06-19T04:31:06;100480.47;;;19.53;94.46
7168;BME280;3625;51.762;14.320;2023-06-19T04:33:35;100451.81;;;19.53;93.70
7168;BME280;3625;51.762;14.320;2023-06-19T04:36:04;100470.66;;;19.82;92.50
7168;BME280;3625;51.762;14.320;2023-06-19T04:38:32;100477.00;;;19.81;89.15
7168;BME280;3625;51.762;14.320;2023-06-19T04:41:01;100470.00;;;19.78;88.86
7168;BME280;3625;51.762;14.320;2023-06-19T04:43:29;100465.69;;;19.76;90.43
7168;BME280;3625;51.762;14.320;2023-06-19T04:45:59;100473.81;;;19.74;90.88
7168;BME280;3625;51.762;14.320;2023-06-19T04:48:31;100480.59;;;19.66;90.30
7168;BME280;3625;51.762;14.320;2023-06-19T04:50:59;100481.94;;;19.58;90.61
7168;BME280;3625;51.762;14.320;2023-06-19T04:53:28;100492.56;;;19.60;90.43
7168;BME280;3625;51.762;14.320;2023-06-19T04:55:57;100467.94;;;19.53;90.24
7168;BME280;3625;51.762;14.320;2023-06-19T04:58:28;100488.97;;;19.75;90.13
7168;BME280;3625;51.762;14.320;2023-06-19T05:00:58;100494.91;;;19.96;90.10
7168;BME280;3625;51.762;14.320;2023-06-19T05:03:27;100428.00;;;19.77;89.00
7168;BME280;3625;51.762;14.320;2023-06-19T05:05:56;100441.66;;;20.03;87.80
7168;BME280;3625;51.762;14.320;2023-06-19T05:08:24;100509.66;;;20.61;86.89
7168;BME280;3625;51.762;14.320;2023-06-19T05:10:53;100492.47;;;20.64;85.93
7168;BME280;3625;51.762;14.320;2023-06-19T05:13:22;100503.59;;;20.86;85.27
7168;BME280;3625;51.762;14.320;2023-06-19T05:15:50;100520.28;;;21.05;84.47
7168;BME280;3625;51.762;14.320;2023-06-19T05:18:21;100519.31;;;21.21;83.41
7168;BME280;3625;51.762;14.320;2023-06-19T05:20:50;100512.38;;;21.31;82.12
7168;BME280;3625;51.762;14.320;2023-06-19T05:23:21;100477.69;;;21.26;81.75
7168;BME280;3625;51.762;14.320;2023-06-19T05:25:50;100510.44;;;21.60;80.44
7168;BME280;3625;51.762;14.320;2023-06-19T05:28:19;100495.16;;;21.60;79.39
7168;BME280;3625;51.762;14.320;2023-06-19T05:30:47;100516.34;;;21.92;78.19
7168;BME280;3625;51.762;14.320;2023-06-19T05:33:17;100510.25;;;22.15;77.31
7168;BME280;3625;51.762;14.320;2023-06-19T05:35:47;100466.25;;;22.14;75.42
7168;BME280;3625;51.762;14.320;2023-06-19T05:38:22;100508.97;;;22.58;73.30
7168;BME280;3625;51.762;14.320;2023-06-19T05:40:53;100519.88;;;22.82;72.44
7168;BME280;3625;51.762;14.320;2023-06-19T05:43:23;100466.91;;;22.56;70.66
7168;BME280;3625;51.762;14.320;2023-06-19T05:45:52;100529.47;;;22.99;69.16
7168;BME280;3625;51.762;14.320;2023-06-19T05:48:21;100538.66;;;23.20;69.51
7168;BME280;3625;51.762;14.320;2023-06-19T05:50:51;100479.56;;;23.05;69.34
7168;BME280;3625;51.762;14.320;2023-06-19T05:53:20;100542.44;;;23.67;68.65
7168;BME280;3625;51.762;14.320;2023-06-19T05:55:48;100537.91;;;23.79;67.75
7168;BME280;3625;51.762;14.320;2023-06-19T05:58:17;100539.78;;;23.78;65.40
7168;BME280;3625;51.762;14.320;2023-06-19T06:00:47;100538.56;;;23.82;65.93
7168;BME280;3625;51.762;14.320;2023-06-19T06:03:15;100532.81;;;23.87;64.37
7168;BME280;3625;51.762;14.320;2023-06-19T06:05:44;100538.38;;;23.73;63.63
7168;BME280;3625;51.762;14.320;2023-06-19T06:08:17;100534.41;;;23.89;65.09
7168;BME280;3625;51.762;14.320;2023-06-19T06:10:46;100503.09;;;23.87;64.78
7168;BME280;3625;51.762;14.320;2023-06-19T06:13:15;100535.44;;;23.99;61.48
7168;BME280;3625;51.762;14.320;2023-06-19T06:15:52;100534.59;;;23.75;62.37
7168;BME280;3625;51.762;14.320;2023-06-19T06:18:33;100531.41;;;23.81;63.27
7168;BME280;3625;51.762;14.320;2023-06-19T06:21:13;100510.75;;;23.69;64.61
7168;BME280;3625;51.762;14.320;2023-06-19T06:24:08;100530.53;;;23.69;62.54
7168;BME280;3625;51.762;14.320;2023-06-19T06:26:37;100528.38;;;23.62;64.39
7168;BME280;3625;51.762;14.320;2023-06-19T06:29:08;100535.75;;;23.60;64.33
7168;BME280;3625;51.762;14.320;2023-06-19T06:31:38;100530.38;;;23.60;64.84
7168;BME280;3625;51.762;14.320;2023-06-19T06:34:08;100534.78;;;23.61;63.93
7168;BME280;3625;51.762;14.320;2023-06-19T06:36:39;100502.38;;;23.48;64.41
7168;BME280;3625;51.762;14.320;2023-06-19T06:39:29;100538.38;;;23.73;62.70
7168;BME280;3625;51.762;14.320;2023-06-19T06:41:58;100530.16;;;23.74;63.59
7168;BME280;3625;51.762;14.320;2023-06-19T06:44:27;100514.41;;;23.92;63.74
7168;BME280;3625;51.762;14.320;2023-06-19T06:46:56;100528.78;;;24.27;63.37
7168;BME280;3625;51.762;14.320;2023-06-19T06:49:28;100518.38;;;24.45;62.33
7168;BME280;3625;51.762;14.320;2023-06-19T06:51:57;100528.97;;;24.81;61.44
7168;BME280;3625;51.762;14.320;2023-06-19T06:54:25;100530.19;;;25.00;60.10
7168;BME280;3625;51.762;14.320;2023-06-19T06:56:55;100504.09;;;24.88;58.57
7168;BME280;3625;51.762;14.320;2023-06-19T06:59:26;100540.03;;;25.12;58.26
7168;BME280;3625;51.762;14.320;2023-06-19T07:01:55;100535.38;;;25.14;57.75
7168;BME280;3625;51.762;14.320;2023-06-19T07:04:24;100529.84;;;25.15;58.56
7168;BME280;3625;51.762;14.320;2023-06-19T07:06:53;100533.63;;;25.24;58.37
7168;BME280;3625;51.762;14.320;2023-06-19T07:09:21;100494.75;;;25.03;58.35
7168;BME280;3625;51.762;14.320;2023-06-19T07:11:50;100495.38;;;25.06;57.79
7168;BME280;3625;51.762;14.320;2023-06-19T07:14:21;100545.06;;;25.28;57.17
7168;BME280;3625;51.762;14.320;2023-06-19T07:16:50;100534.50;;;25.25;57.63
7168;BME280;3625;51.762;14.320;2023-06-19T07:19:18;100551.47;;;25.27;57.77
7168;BME280;3625;51.762;14.320;2023-06-19T07:21:50;100511.50;;;25.08;57.44
7168;BME280;3625;51.762;14.320;2023-06-19T07:24:19;100509.25;;;25.24;57.88
7168;BME280;3625;51.762;14.320;2023-06-19T07:26:48;100374.84;;;24.58;57.16
7168;BME280;3625;51.762;14.320;2023-06-19T07:29:18;100524.19;;;25.62;57.37
7168;BME280;3625;51.762;14.320;2023-06-19T07:31:48;100441.16;;;25.29;57.04
7168;BME280;3625;51.762;14.320;2023-06-19T07:34:17;100539.34;;;25.96;55.51
7168;BME280;3625;51.762;14.320;2023-06-19T07:36:45;100527.50;;;25.97;55.88
7168;BME280;3625;51.762;14.320;2023-06-19T07:39:14;100529.28;;;26.08;55.66
7168;BME280;3625;51.762;14.320;2023-06-19T07:41:44;100541.63;;;26.33;55.14
7168;BME280;3625;51.762;14.320;2023-06-19T07:44:13;100548.19;;;26.51;54.11
7168;BME280;3625;51.762;14.320;2023-06-19T07:46:44;100555.25;;;26.63;53.92
7168;BME280;3625;51.762;14.320;2023-06-19T07:49:15;100561.25;;;26.87;53.33
7168;BME280;3625;51.762;14.320;2023-06-19T07:51:46;100569.09;;;27.11;52.96
7168;BME280;3625;51.762;14.320;2023-06-19T07:54:14;100571.78;;;27.41;51.85
7168;BME280;3625;51.762;14.320;2023-06-19T07:56:43;100572.53;;;27.63;50.64
7168;BME280;3625;51.762;14.320;2023-06-19T07:59:11;100575.56;;;27.69;48.48
7168;BME280;3625;51.762;14.320;2023-06-19T08:01:41;100565.63;;;27.49;47.96
7168;BME280;3625;51.762;14.320;2023-06-19T08:04:11;100574.16;;;27.75;48.64
7168;BME280;3625;51.762;14.320;2023-06-19T08:06:41;100522.19;;;27.68;48.73
7168;BME280;3625;51.762;14.320;2023-06-19T08:09:09;100581.34;;;28.24;47.69
7168;BME280;3625;51.762;14.320;2023-06-19T08:11:38;100523.06;;;28.17;47.34
7168;BME280;3625;51.762;14.320;2023-06-19T08:14:06;100550.16;;;28.65;46.30
7168;BME280;3625;51.762;14.320;2023-06-19T08:16:38;100530.53;;;28.71;45.39
7168;BME280;3625;51.762;14.320;2023-06-19T08:19:06;100569.75;;;29.25;45.04
7168;BME280;3625;51.762;14.320;2023-06-19T08:21:35;100572.25;;;29.46;43.96
7168;BME280;3625;51.762;14.320;2023-06-19T08:24:05;100568.47;;;29.56;43.24
7168;BME280;3625;51.762;14.320;2023-06-19T08:26:34;100547.88;;;29.62;42.79
7168;BME280;3625;51.762;14.320;2023-06-19T08:29:02;100566.78;;;29.91;42.03
7168;BME280;3625;51.762;14.320;2023-06-19T08:31:31;100534.91;;;29.91;41.81
7168;BME280;3625;51.762;14.320;2023-06-19T08:34:01;100576.47;;;30.03;40.98
7168;BME280;3625;51.762;14.320;2023-06-19T08:36:33;100575.31;;;30.06;41.05
7168;BME280;3625;51.762;14.320;2023-06-19T08:39:06;100515.00;;;29.63;40.98
7168;BME280;3625;51.762;14.320;2023-06-19T08:41:39;100559.97;;;29.77;40.54
7168;BME280;3625;51.762;14.320;2023-06-19T08:44:09;100494.34;;;29.43;40.52
7168;BME280;3625;51.762;14.320;2023-06-19T08:46:38;100449.66;;;29.26;40.39
7168;BME280;3625;51.762;14.320;2023-06-19T08:49:10;100563.16;;;30.00;40.43
7168;BME280;3625;51.762;14.320;2023-06-19T08:51:39;100498.50;;;29.83;39.69
7168;BME280;3625;51.762;14.320;2023-06-19T08:54:25;100326.88;;;29.10;39.51
7168;BME280;3625;51.762;14.320;2023-06-19T08:57:06;100484.75;;;30.36;38.85
7168;BME280;3625;51.762;14.320;2023-06-19T08:59:48;100526.22;;;30.83;38.80
7168;BME280;3625;51.762;14.320;2023-06-19T09:02:17;100561.34;;;31.30;38.43
7168;BME280;3625;51.762;14.320;2023-06-19T09:04:50;100565.00;;;31.55;37.23
7168;BME280;3625;51.762;14.320;2023-06-19T09:07:22;100567.47;;;31.74;36.90
7168;BME280;3625;51.762;14.320;2023-06-19T09:09:52;100571.59;;;31.86;36.95
7168;BME280;3625;51.762;14.320;2023-06-19T09:12:20;100526.75;;;31.63;36.54
7168;BME280;3625;51.762;14.320;2023-06-19T09:14:56;100550.72;;;31.85;36.39
7168;BME280;3625;51.762;14.320;2023-06-19T09:17:25;100534.81;;;31.89;36.24
7168;BME280;3625;51.762;14.320;2023-06-19T09:19:58;100557.06;;;32.02;36.13
7168;BME280;3625;51.762;14.320;2023-06-19T09:22:29;100556.00;;;31.70;35.40
7168;BME280;3625;51.762;14.320;2023-06-19T09:25:07;100511.56;;;31.26;35.87
7168;BME280;3625;51.762;14.320;2023-06-19T09:27:42;100541.09;;;31.15;36.42
7168;BME280;3625;51.762;14.320;2023-06-19T09:30:15;100553.25;;;31.20;36.07
7168;BME280;3625;51.762;14.320;2023-06-19T09:32:46;100517.44;;;30.71;36.52
7168;BME280;3625;51.762;14.320;2023-06-19T09:35:15;100550.38;;;30.96;36.73
7168;BME280;3625;51.762;14.320;2023-06-19T09:37:46;100481.63;;;30.74;36.71
7168;BME280;3625;51.762;14.320;2023-06-19T09:40:17;100550.44;;;31.46;35.79
7168;BME280;3625;51.762;14.320;2023-06-19T09:42:48;100548.97;;;31.68;35.52
7168;BME280;3625;51.762;14.320;2023-06-19T09:45:30;100523.44;;;31.59;35.51
7168;BME280;3625;51.762;14.320;2023-06-19T09:48:00;100559.97;;;31.92;35.40
7168;BME280;3625;51.762;14.320;2023-06-19T09:50:50;100552.59;;;32.09;35.04
7168;BME280;3625;51.762;14.320;2023-06-19T09:53:19;100554.16;;;32.44;34.13
7168;BME280;3625;51.762;14.320;2023-06-19T09:55:50;100536.31;;;32.80;33.60
7168;BME280;3625;51.762;14.320;2023-06-19T09:58:21;100550.25;;;33.18;33.30
7168;BME280;3625;51.762;14.320;2023-06-19T10:00:53;100551.59;;;33.61;32.89
7168;BME280;3625;51.762;14.320;2023-06-19T10:03:31;100552.31;;;33.86;32.49
7168;BME280;3625;51.762;14.320;2023-06-19T10:06:03;100539.00;;;34.20;31.75
7168;BME280;3625;51.762;14.320;2023-06-19T10:08:39;100545.06;;;34.38;31.16
7168;BME280;3625;51.762;14.320;2023-06-19T10:11:09;100532.56;;;34.13;30.80
7168;BME280;3625;51.762;14.320;2023-06-19T10:13:41;100547.13;;;34.14;30.91
7168;BME280;3625;51.762;14.320;2023-06-19T10:16:21;100547.03;;;34.30;30.61
7168;BME280;3625;51.762;14.320;2023-06-19T10:18:51;100535.22;;;34.21;30.37
7168;BME280;3625;51.762;14.320;2023-06-19T10:21:21;100539.47;;;34.32;30.19
7168;BME280;3625;51.762;14.320;2023-06-19T10:23:57;100533.78;;;34.33;30.13
7168;BME280;3625;51.762;14.320;2023-06-19T10:26:35;100374.69;;;33.49;30.10
7168;BME280;3625;51.762;14.320;2023-06-19T10:29:16;100486.31;;;34.25;30.40
7168;BME280;3625;51.762;14.320;2023-06-19T10:31:45;100365.25;;;33.51;29.98
7168;BME280;3625;51.762;14.320;2023-06-19T10:34:14;100495.78;;;34.37;30.44
7168;BME280;3625;51.762;14.320;2023-06-19T10:36:46;100529.16;;;34.49;29.82
7168;BME280;3625;51.762;14.320;2023-06-19T10:39:15;100523.44;;;34.35;29.99
7168;BME280;3625;51.762;14.320;2023-06-19T10:41:49;100532.63;;;34.05;30.10
7168;BME280;3625;51.762;14.320;2023-06-19T10:44:18;100516.63;;;33.86;30.08
7168;BME280;3625;51.762;14.320;2023-06-19T10:46:46;100518.63;;;33.92;30.32
7168;BME280;3625;51.762;14.320;2023-06-19T10:49:15;100467.84;;;33.73;30.18
7168;BME280;3625;51.762;14.320;2023-06-19T10:51:43;100448.44;;;33.75;29.86
7168;BME280;3625;51.762;14.320;2023-06-19T10:54:12;100508.94;;;34.04;29.87
7168;BME280;3625;51.762;14.320;2023-06-19T10:56:40;100485.44;;;34.01;29.62
7168;BME280;3625;51.762;14.320;2023-06-19T10:59:12;100316.47;;;33.39;29.57
7168;BME280;3625;51.762;14.320;2023-06-19T11:01:43;100506.84;;;34.81;29.07
7168;BME280;3625;51.762;14.320;2023-06-19T11:04:15;100507.00;;;35.09;28.81
7168;BME280;3625;51.762;14.320;2023-06-19T11:06:45;100458.69;;;34.85;28.18
7168;BME280;3625;51.762;14.320;2023-06-19T11:09:14;100508.53;;;35.26;28.36
7168;BME280;3625;51.762;14.320;2023-06-19T11:11:47;100513.06;;;35.34;27.79
7168;BME280;3625;51.762;14.320;2023-06-19T11:14:18;100414.88;;;34.54;27.99
7168;BME280;3625;51.762;14.320;2023-06-19T11:16:49;100503.31;;;34.87;28.34
7168;BME280;3625;51.762;14.320;2023-06-19T11:19:21;100503.41;;;34.79;28.26
7168;BME280;3625;51.762;14.320;2023-06-19T11:21:52;100504.63;;;34.62;28.67
7168;BME280;3625;51.762;14.320;2023-06-19T11:24:23;100491.13;;;34.37;29.04
7168;BME280;3625;51.762;14.320;2023-06-19T11:26:53;100491.22;;;34.29;29.20
7168;BME280;3625;51.762;14.320;2023-06-19T11:29:26;100484.69;;;34.30;29.12
7168;BME280;3625;51.762;14.320;2023-06-19T11:32:06;100487.00;;;34.41;29.23
7168;BME280;3625;51.762;14.320;2023-06-19T11:34:39;100471.88;;;34.23;28.93
7168;BME280;3625;51.762;14.320;2023-06-19T11:37:12;100460.25;;;33.98;29.21
7168;BME280;3625;51.762;14.320;2023-06-19T11:39:43;100455.28;;;33.79;29.30
7168;BME280;3625;51.762;14.320;2023-06-19T11:42:12;100477.59;;;33.98;29.37
7168;BME280;3625;51.762;14.320;2023-06-19T11:44:54;100487.22;;;33.94;29.46
7168;BME280;3625;51.762;14.320;2023-06-19T11:47:23;100493.38;;;33.74;29.71
7168;BME280;3625;51.762;14.320;2023-06-19T11:49:52;100438.75;;;33.33;29.45
7168;BME280;3625;51.762;14.320;2023-06-19T11:52:23;100430.94;;;33.22;29.30
7168;BME280;3625;51.762;14.320;2023-06-19T11:54:56;100402.94;;;33.04;29.54
7168;BME280;3625;51.762;14.320;2023-06-19T11:57:27;100468.84;;;33.49;29.77
7168;BME280;3625;51.762;14.320;2023-06-19T11:59:58;100377.53;;;33.10;29.55
7168;BME280;3625;51.762;14.320;2023-06-19T12:02:26;100487.56;;;33.68;29.37
7168;BME280;3625;51.762;14.320;2023-06-19T12:04:55;100465.97;;;33.43;29.61
7168;BME280;3625;51.762;14.320;2023-06-19T12:07:24;100499.28;;;33.62;29.28
7168;BME280;3625;51.762;14.320;2023-06-19T12:09:52;100494.94;;;33.45;29.61
7168;BME280;3625;51.762;14.320;2023-06-19T12:12:21;100491.16;;;33.46;29.53
7168;BME280;3625;51.762;14.320;2023-06-19T12:14:51;100483.97;;;33.45;29.60
7168;BME280;3625;51.762;14.320;2023-06-19T12:17:21;100455.28;;;33.25;29.70
7168;BME280;3625;51.762;14.320;2023-06-19T12:19:50;100478.03;;;33.33;29.85
7168;BME280;3625;51.762;14.320;2023-06-19T12:22:19;100474.75;;;33.38;29.86
7168;BME280;3625;51.762;14.320;2023-06-19T12:24:49;100482.81;;;33.62;29.24
7168;BME280;3625;51.762;14.320;2023-06-19T12:27:18;100447.16;;;33.85;28.91
7168;BME280;3625;51.762;14.320;2023-06-19T12:29:47;100450.22;;;34.05;28.69
7168;BME280;3625;51.762;14.320;2023-06-19T12:32:16;100480.63;;;34.03;28.73
7168;BME280;3625;51.762;14.320;2023-06-19T12:34:46;100474.34;;;33.95;29.25
7168;BME280;3625;51.762;14.320;2023-06-19T12:37:15;100442.00;;;33.82;28.78
7168;BME280;3625;51.762;14.320;2023-06-19T12:39:44;100448.63;;;33.73;28.81
7168;BME280;3625;51.762;14.320;2023-06-19T12:42:13;100419.88;;;33.38;28.42
7168;BME280;3625;51.762;14.320;2023-06-19T12:44:43;100469.63;;;33.58;28.39
7168;BME280;3625;51.762;14.320;2023-06-19T12:47:14;100442.88;;;33.37;28.75
7168;BME280;3625;51.762;14.320;2023-06-19T12:49:46;100457.03;;;33.71;28.32
7168;BME280;3625;51.762;14.320;2023-06-19T12:52:15;100464.47;;;34.23;28.24
7168;BME280;3625;51.762;14.320;2023-06-19T12:54:43;100461.13;;;34.51;27.54
7168;BME280;3625;51.762;14.320;2023-06-19T12:57:12;100463.13;;;34.57;27.61
7168;BME280;3625;51.762;14.320;2023-06-19T12:59:41;100461.31;;;34.49;27.45
7168;BME280;3625;51.762;14.320;2023-06-19T13:02:09;100462.41;;;34.25;27.36
7168;BME280;3625;51.762;14.320;2023-06-19T13:04:41;100460.53;;;34.03;27.53
7168;BME280;3625;51.762;14.320;2023-06-19T13:07:11;100457.44;;;33.60;28.07
7168;BME280;3625;51.762;14.320;2023-06-19T13:09:41;100433.44;;;33.01;29.07
7168;BME280;3625;51.762;14.320;2023-06-19T13:12:10;100452.59;;;32.78;29.39
7168;BME280;3625;51.762;14.320;2023-06-19T13:14:39;100454.91;;;32.34;28.98
7168;BME280;3625;51.762;14.320;2023-06-19T13:17:09;100405.66;;;31.61;29.90
7168;BME280;3625;51.762;14.320;2023-06-19T13:19:37;100410.09;;;31.37;29.96
7168;BME280;3625;51.762;14.320;2023-06-19T13:22:06;100443.09;;;31.52;30.55
7168;BME280;3625;51.762;14.320;2023-06-19T13:24:36;100447.84;;;31.26;30.43